sensor_id;sensor_type;location;lat;lon;timestamp;P1;durP1;ratioP1;P2;durP2;ratioP2
84725;SDS011;74945;43.124;0.104;2023-12-20T00:00:39;4.28;;;3.08;;
84725;SDS011;74945;43.124;0.104;2023-12-20T00:03:04;4.30;;;3.30;;
84725;SDS011;74945;43.124;0.104;2023-12-20T00:05:30;6.88;;;3.47;;
84725;SDS011;74945;43.124;0.104;2023-12-20T00:07:57;4.80;;;3.35;;
84725;SDS011;74945;43.124;0.104;2023-12-20T00:10:23;5.10;;;3.20;;
84725;SDS011;74945;43.124;0.104;2023-12-20T00:12:48;4.28;;;3.17;;
84725;SDS011;74945;43.124;0.104;2023-12-20T00:15:13;3.50;;;3.20;;
84725;SDS011;74945;43.124;0.104;2023-12-20T00:17:39;8.23;;;3.10;;
84725;SDS011;74945;43.124;0.104;2023-12-20T00:20:04;5.68;;;3.10;;
84725;SDS011;74945;43.124;0.104;2023-12-20T00:22:31;4.10;;;3.47;;
84725;SDS011;74945;43.124;0.104;2023-12-20T00:24:56;4.60;;;3.28;;
84725;SDS011;74945;43.124;0.104;2023-12-20T00:27:22;3.97;;;3.20;;
84725;SDS011;74945;43.124;0.104;2023-12-20T00:29:48;6.93;;;3.53;;
84725;SDS011;74945;43.124;0.104;2023-12-20T00:32:15;5.72;;;3.40;;
84725;SDS011;74945;43.124;0.104;2023-12-20T00:34:40;4.72;;;3.20;;
84725;SDS011;74945;43.124;0.104;2023-12-20T00:37:06;4.30;;;3.13;;
84725;SDS011;74945;43.124;0.104;2023-12-20T00:39:31;3.05;;;2.67;;
84725;SDS011;74945;43.124;0.104;2023-12-20T00:41:58;5.32;;;3.28;;
84725;SDS011;74945;43.124;0.104;2023-12-20T00:44:23;6.72;;;2.90;;
84725;SDS011;74945;43.124;0.104;2023-12-20T00:46:48;3.55;;;2.88;;
84725;SDS011;74945;43.124;0.104;2023-12-20T00:49:14;5.07;;;3.20;;
84725;SDS011;74945;43.124;0.104;2023-12-20T00:51:39;4.63;;;3.15;;
84725;SDS011;74945;43.124;0.104;2023-12-20T00:54:05;5.25;;;2.97;;
84725;SDS011;74945;43.124;0.104;2023-12-20T00:56:30;6.00;;;3.35;;
84725;SDS011;74945;43.124;0.104;2023-12-20T00:58:55;4.07;;;2.70;;
84725;SDS011;74945;43.124;0.104;2023-12-20T01:01:21;4.50;;;2.85;;
84725;SDS011;74945;43.124;0.104;2023-12-20T01:03:46;3.38;;;2.83;;
84725;SDS011;74945;43.124;0.104;2023-12-20T01:06:12;5.32;;;2.92;;
84725;SDS011;74945;43.124;0.104;2023-12-20T01:08:37;3.72;;;2.72;;
84725;SDS011;74945;43.124;0.104;2023-12-20T01:11:04;3.65;;;3.00;;
84725;SDS011;74945;43.124;0.104;2023-12-20T01:13:30;3.08;;;2.83;;
84725;SDS011;74945;43.124;0.104;2023-12-20T01:15:55;4.13;;;3.08;;
84725;SDS011;74945;43.124;0.104;2023-12-20T01:18:21;3.30;;;2.80;;
84725;SDS011;74945;43.124;0.104;2023-12-20T01:20:46;4.13;;;2.88;;
84725;SDS011;74945;43.124;0.104;2023-12-20T01:23:11;3.47;;;2.90;;
84725;SDS011;74945;43.124;0.104;2023-12-20T01:25:37;3.40;;;2.70;;
84725;SDS011;74945;43.124;0.104;2023-12-20T01:28:02;4.00;;;3.08;;
84725;SDS011;74945;43.124;0.104;2023-12-20T01:30:28;3.50;;;2.85;;
84725;SDS011;74945;43.124;0.104;2023-12-20T01:32:53;3.05;;;2.75;;
84725;SDS011;74945;43.124;0.104;2023-12-20T01:35:19;3.67;;;2.83;;
84725;SDS011;74945;43.124;0.104;2023-12-20T01:37:44;4.40;;;3.10;;
84725;SDS011;74945;43.124;0.104;2023-12-20T01:40:10;3.55;;;2.50;;
84725;SDS011;74945;43.124;0.104;2023-12-20T01:42:35;3.88;;;2.70;;
84725;SDS011;74945;43.124;0.104;2023-12-20T01:45:01;3.58;;;3.03;;
84725;SDS011;74945;43.124;0.104;2023-12-20T01:47:27;3.55;;;2.90;;
84725;SDS011;74945;43.124;0.104;2023-12-20T01:49:53;3.13;;;2.83;;
84725;SDS011;74945;43.124;0.104;2023-12-20T01:52:19;5.28;;;2.85;;
84725;SDS011;74945;43.124;0.104;2023-12-20T01:54:44;3.22;;;2.70;;
84725;SDS011;74945;43.124;0.104;2023-12-20T01:57:10;4.10;;;2.70;;
84725;SDS011;74945;43.124;0.104;2023-12-20T01:59:37;3.15;;;2.78;;
84725;SDS011;74945;43.124;0.104;2023-12-20T02:02:04;3.00;;;2.65;;
84725;SDS011;74945;43.124;0.104;2023-12-20T02:04:30;2.80;;;2.60;;
84725;SDS011;74945;43.124;0.104;2023-12-20T02:06:55;5.80;;;3.00;;
84725;SDS011;74945;43.124;0.104;2023-12-20T02:09:22;4.90;;;2.80;;
84725;SDS011;74945;43.124;0.104;2023-12-20T02:11:47;3.85;;;2.90;;
84725;SDS011;74945;43.124;0.104;2023-12-20T02:14:13;4.45;;;2.70;;
84725;SDS011;74945;43.124;0.104;2023-12-20T02:16:38;2.90;;;2.70;;
84725;SDS011;74945;43.124;0.104;2023-12-20T02:19:04;3.00;;;2.70;;
84725;SDS011;74945;43.124;0.104;2023-12-20T02:21:34;3.78;;;2.50;;
84725;SDS011;74945;43.124;0.104;2023-12-20T02:24:00;4.28;;;2.83;;
84725;SDS011;74945;43.124;0.104;2023-12-20T02:26:26;3.58;;;2.70;;
84725;SDS011;74945;43.124;0.104;2023-12-20T02:28:51;2.85;;;2.60;;
84725;SDS011;74945;43.124;0.104;2023-12-20T02:31:17;2.65;;;2.45;;
84725;SDS011;74945;43.124;0.104;2023-12-20T02:33:46;3.53;;;2.72;;
84725;SDS011;74945;43.124;0.104;2023-12-20T02:36:11;2.95;;;2.63;;
84725;SDS011;74945;43.124;0.104;2023-12-20T02:38:37;3.83;;;2.28;;
84725;SDS011;74945;43.124;0.104;2023-12-20T02:41:02;2.70;;;2.50;;
84725;SDS011;74945;43.124;0.104;2023-12-20T02:43:28;2.88;;;2.55;;
84725;SDS011;74945;43.124;0.104;2023-12-20T02:45:53;2.90;;;2.70;;
84725;SDS011;74945;43.124;0.104;2023-12-20T02:48:19;2.80;;;2.50;;
84725;SDS011;74945;43.124;0.104;2023-12-20T02:50:45;2.70;;;2.50;;
84725;SDS011;74945;43.124;0.104;2023-12-20T02:53:11;2.90;;;2.70;;
84725;SDS011;74945;43.124;0.104;2023-12-20T02:55:37;4.03;;;2.53;;
84725;SDS011;74945;43.124;0.104;2023-12-20T02:58:02;3.63;;;2.90;;
84725;SDS011;74945;43.124;0.104;2023-12-20T03:00:27;3.08;;;2.50;;
84725;SDS011;74945;43.124;0.104;2023-12-20T03:02:53;3.20;;;2.65;;
84725;SDS011;74945;43.124;0.104;2023-12-20T03:05:18;3.03;;;2.40;;
84725;SDS011;74945;43.124;0.104;2023-12-20T03:07:44;3.25;;;2.80;;
84725;SDS011;74945;43.124;0.104;2023-12-20T03:10:09;2.63;;;2.28;;
84725;SDS011;74945;43.124;0.104;2023-12-20T03:12:35;2.80;;;2.60;;
84725;SDS011;74945;43.124;0.104;2023-12-20T03:15:00;3.03;;;2.33;;
84725;SDS011;74945;43.124;0.104;2023-12-20T03:17:25;3.15;;;2.30;;
84725;SDS011;74945;43.124;0.104;2023-12-20T03:19:51;2.60;;;2.40;;
84725;SDS011;74945;43.124;0.104;2023-12-20T03:22:16;2.67;;;2.45;;
84725;SDS011;74945;43.124;0.104;2023-12-20T03:24:41;3.10;;;2.75;;
84725;SDS011;74945;43.124;0.104;2023-12-20T03:27:07;3.30;;;2.58;;
84725;SDS011;74945;43.124;0.104;2023-12-20T03:29:32;3.63;;;2.50;;
84725;SDS011;74945;43.124;0.104;2023-12-20T03:31:57;3.03;;;2.40;;
84725;SDS011;74945;43.124;0.104;2023-12-20T03:34:23;3.53;;;2.50;;
84725;SDS011;74945;43.124;0.104;2023-12-20T03:36:48;2.60;;;2.40;;
84725;SDS011;74945;43.124;0.104;2023-12-20T03:39:14;2.70;;;2.45;;
84725;SDS011;74945;43.124;0.104;2023-12-20T03:41:39;2.75;;;2.30;;
84725;SDS011;74945;43.124;0.104;2023-12-20T03:44:04;2.60;;;2.20;;
84725;SDS011;74945;43.124;0.104;2023-12-20T03:46:30;2.40;;;2.20;;
84725;SDS011;74945;43.124;0.104;2023-12-20T03:48:56;3.03;;;2.40;;
84725;SDS011;74945;43.124;0.104;2023-12-20T03:51:22;2.65;;;2.42;;
84725;SDS011;74945;43.124;0.104;2023-12-20T03:53:47;2.28;;;2.05;;
84725;SDS011;74945;43.124;0.104;2023-12-20T03:56:12;3.70;;;2.28;;
84725;SDS011;74945;43.124;0.104;2023-12-20T03:58:38;2.53;;;2.08;;
84725;SDS011;74945;43.124;0.104;2023-12-20T04:01:03;3.00;;;2.22;;
84725;SDS011;74945;43.124;0.104;2023-12-20T04:03:35;6.03;;;2.47;;
84725;SDS011;74945;43.124;0.104;2023-12-20T04:06:00;2.47;;;2.28;;
84725;SDS011;74945;43.124;0.104;2023-12-20T04:08:25;2.55;;;2.30;;
84725;SDS011;74945;43.124;0.104;2023-12-20T04:10:51;2.58;;;2.15;;
84725;SDS011;74945;43.124;0.104;2023-12-20T04:13:16;3.00;;;2.20;;
84725;SDS011;74945;43.124;0.104;2023-12-20T04:15:42;3.13;;;2.10;;
84725;SDS011;74945;43.124;0.104;2023-12-20T04:18:07;2.65;;;2.00;;
84725;SDS011;74945;43.124;0.104;2023-12-20T04:20:33;2.55;;;2.30;;
84725;SDS011;74945;43.124;0.104;2023-12-20T04:22:58;4.72;;;2.30;;
84725;SDS011;74945;43.124;0.104;2023-12-20T04:25:23;3.33;;;2.25;;
84725;SDS011;74945;43.124;0.104;2023-12-20T04:27:49;3.80;;;2.22;;
84725;SDS011;74945;43.124;0.104;2023-12-20T04:30:14;4.90;;;2.30;;
84725;SDS011;74945;43.124;0.104;2023-12-20T04:32:39;3.17;;;2.33;;
84725;SDS011;74945;43.124;0.104;2023-12-20T04:35:05;2.55;;;2.05;;
84725;SDS011;74945;43.124;0.104;2023-12-20T04:37:30;2.67;;;1.90;;
84725;SDS011;74945;43.124;0.104;2023-12-20T04:39:56;2.72;;;2.08;;
84725;SDS011;74945;43.124;0.104;2023-12-20T04:42:21;2.75;;;2.13;;
84725;SDS011;74945;43.124;0.104;2023-12-20T04:44:47;2.92;;;2.15;;
84725;SDS011;74945;43.124;0.104;2023-12-20T04:47:12;5.68;;;2.15;;
84725;SDS011;74945;43.124;0.104;2023-12-20T04:49:37;4.72;;;2.20;;
84725;SDS011;74945;43.124;0.104;2023-12-20T04:52:03;2.80;;;2.10;;
84725;SDS011;74945;43.124;0.104;2023-12-20T04:54:28;2.58;;;1.95;;
84725;SDS011;74945;43.124;0.104;2023-12-20T04:56:54;3.60;;;2.15;;
84725;SDS011;74945;43.124;0.104;2023-12-20T04:59:19;3.40;;;1.85;;
84725;SDS011;74945;43.124;0.104;2023-12-20T05:01:45;2.53;;;1.73;;
84725;SDS011;74945;43.124;0.104;2023-12-20T05:04:12;2.80;;;1.92;;
84725;SDS011;74945;43.124;0.104;2023-12-20T05:06:37;3.05;;;1.80;;
84725;SDS011;74945;43.124;0.104;2023-12-20T05:09:03;1.98;;;1.80;;
84725;SDS011;74945;43.124;0.104;2023-12-20T05:11:28;2.15;;;1.92;;
84725;SDS011;74945;43.124;0.104;2023-12-20T05:13:53;2.97;;;1.90;;
84725;SDS011;74945;43.124;0.104;2023-12-20T05:16:19;2.55;;;1.90;;
84725;SDS011;74945;43.124;0.104;2023-12-20T05:18:45;2.05;;;1.85;;
84725;SDS011;74945;43.124;0.104;2023-12-20T05:21:10;2.55;;;1.95;;
84725;SDS011;74945;43.124;0.104;2023-12-20T05:23:36;3.35;;;2.03;;
84725;SDS011;74945;43.124;0.104;2023-12-20T05:26:01;2.50;;;2.00;;
84725;SDS011;74945;43.124;0.104;2023-12-20T05:28:26;1.88;;;1.77;;
84725;SDS011;74945;43.124;0.104;2023-12-20T05:30:52;1.95;;;1.73;;
84725;SDS011;74945;43.124;0.104;2023-12-20T05:33:17;2.85;;;1.83;;
84725;SDS011;74945;43.124;0.104;2023-12-20T05:35:43;2.10;;;1.90;;
84725;SDS011;74945;43.124;0.104;2023-12-20T05:38:08;1.88;;;1.65;;
84725;SDS011;74945;43.124;0.104;2023-12-20T05:40:34;3.80;;;1.80;;
84725;SDS011;74945;43.124;0.104;2023-12-20T05:42:59;3.70;;;2.00;;
84725;SDS011;74945;43.124;0.104;2023-12-20T05:45:25;2.78;;;1.77;;
84725;SDS011;74945;43.124;0.104;2023-12-20T05:47:50;2.15;;;1.70;;
84725;SDS011;74945;43.124;0.104;2023-12-20T05:50:15;2.53;;;1.77;;
84725;SDS011;74945;43.124;0.104;2023-12-20T05:52:41;2.00;;;1.67;;
84725;SDS011;74945;43.124;0.104;2023-12-20T05:55:06;2.20;;;1.63;;
84725;SDS011;74945;43.124;0.104;2023-12-20T05:57:32;1.98;;;1.67;;
84725;SDS011;74945;43.124;0.104;2023-12-20T05:59:57;1.67;;;1.58;;
84725;SDS011;74945;43.124;0.104;2023-12-20T06:02:22;1.95;;;1.70;;
84725;SDS011;74945;43.124;0.104;2023-12-20T06:04:48;1.55;;;1.45;;
84725;SDS011;74945;43.124;0.104;2023-12-20T06:07:14;1.80;;;1.52;;
84725;SDS011;74945;43.124;0.104;2023-12-20T06:09:40;2.13;;;1.80;;
84725;SDS011;74945;43.124;0.104;2023-12-20T06:12:06;1.70;;;1.60;;
84725;SDS011;74945;43.124;0.104;2023-12-20T06:14:32;1.65;;;1.30;;
84725;SDS011;74945;43.124;0.104;2023-12-20T06:16:57;1.90;;;1.70;;
84725;SDS011;74945;43.124;0.104;2023-12-20T06:19:23;1.77;;;1.63;;
84725;SDS011;74945;43.124;0.104;2023-12-20T06:21:48;1.65;;;1.38;;
84725;SDS011;74945;43.124;0.104;2023-12-20T06:24:13;1.65;;;1.40;;
84725;SDS011;74945;43.124;0.104;2023-12-20T06:26:39;1.42;;;1.30;;
84725;SDS011;74945;43.124;0.104;2023-12-20T06:29:04;1.95;;;1.73;;
84725;SDS011;74945;43.124;0.104;2023-12-20T06:31:30;1.55;;;1.45;;
84725;SDS011;74945;43.124;0.104;2023-12-20T06:33:57;2.03;;;1.30;;
84725;SDS011;74945;43.124;0.104;2023-12-20T06:36:24;1.70;;;1.42;;
84725;SDS011;74945;43.124;0.104;2023-12-20T06:38:50;1.58;;;1.30;;
84725;SDS011;74945;43.124;0.104;2023-12-20T06:41:15;1.75;;;1.42;;
84725;SDS011;74945;43.124;0.104;2023-12-20T06:43:41;1.52;;;1.42;;
84725;SDS011;74945;43.124;0.104;2023-12-20T06:46:07;1.60;;;1.50;;
84725;SDS011;74945;43.124;0.104;2023-12-20T06:48:32;1.63;;;1.40;;
84725;SDS011;74945;43.124;0.104;2023-12-20T06:50:59;1.60;;;1.50;;
84725;SDS011;74945;43.124;0.104;2023-12-20T06:53:25;1.63;;;1.52;;
84725;SDS011;74945;43.124;0.104;2023-12-20T06:55:50;1.92;;;1.73;;
84725;SDS011;74945;43.124;0.104;2023-12-20T06:58:15;1.45;;;1.35;;
84725;SDS011;74945;43.124;0.104;2023-12-20T07:00:41;1.30;;;1.20;;
84725;SDS011;74945;43.124;0.104;2023-12-20T07:03:07;1.30;;;1.20;;
84725;SDS011;74945;43.124;0.104;2023-12-20T07:05:32;1.75;;;1.48;;
84725;SDS011;74945;43.124;0.104;2023-12-20T07:07:58;1.30;;;1.20;;
84725;SDS011;74945;43.124;0.104;2023-12-20T07:10:23;1.77;;;1.67;;
84725;SDS011;74945;43.124;0.104;2023-12-20T07:12:49;1.60;;;1.17;;
84725;SDS011;74945;43.124;0.104;2023-12-20T07:15:16;2.50;;;1.48;;
84725;SDS011;74945;43.124;0.104;2023-12-20T07:17:41;1.50;;;1.40;;
84725;SDS011;74945;43.124;0.104;2023-12-20T07:20:07;1.73;;;1.40;;
84725;SDS011;74945;43.124;0.104;2023-12-20T07:22:35;1.67;;;1.35;;
84725;SDS011;74945;43.124;0.104;2023-12-20T07:25:01;1.30;;;1.20;;
84725;SDS011;74945;43.124;0.104;2023-12-20T07:27:26;1.35;;;1.20;;
84725;SDS011;74945;43.124;0.104;2023-12-20T07:29:52;2.05;;;1.42;;
84725;SDS011;74945;43.124;0.104;2023-12-20T07:32:17;2.15;;;1.40;;
84725;SDS011;74945;43.124;0.104;2023-12-20T07:34:43;2.25;;;1.30;;
84725;SDS011;74945;43.124;0.104;2023-12-20T07:37:08;1.42;;;1.33;;
84725;SDS011;74945;43.124;0.104;2023-12-20T07:39:36;1.48;;;1.38;;
84725;SDS011;74945;43.124;0.104;2023-12-20T07:42:02;1.98;;;1.27;;
84725;SDS011;74945;43.124;0.104;2023-12-20T07:44:28;2.17;;;1.40;;
84725;SDS011;74945;43.124;0.104;2023-12-20T07:46:53;1.40;;;1.30;;
84725;SDS011;74945;43.124;0.104;2023-12-20T07:49:19;1.38;;;1.27;;
84725;SDS011;74945;43.124;0.104;2023-12-20T07:51:44;2.17;;;1.30;;
84725;SDS011;74945;43.124;0.104;2023-12-20T07:54:09;1.55;;;1.38;;
84725;SDS011;74945;43.124;0.104;2023-12-20T07:56:35;2.72;;;1.10;;
84725;SDS011;74945;43.124;0.104;2023-12-20T07:59:00;1.42;;;1.33;;
84725;SDS011;74945;43.124;0.104;2023-12-20T08:01:26;3.97;;;1.30;;
84725;SDS011;74945;43.124;0.104;2023-12-20T08:03:51;3.13;;;1.55;;
84725;SDS011;74945;43.124;0.104;2023-12-20T08:06:17;3.88;;;1.58;;
84725;SDS011;74945;43.124;0.104;2023-12-20T08:08:43;3.88;;;1.50;;
84725;SDS011;74945;43.124;0.104;2023-12-20T08:11:08;1.50;;;1.20;;
84725;SDS011;74945;43.124;0.104;2023-12-20T08:13:33;3.03;;;1.40;;
84725;SDS011;74945;43.124;0.104;2023-12-20T08:15:59;1.52;;;1.30;;
84725;SDS011;74945;43.124;0.104;2023-12-20T08:18:24;3.38;;;1.70;;
84725;SDS011;74945;43.124;0.104;2023-12-20T08:20:49;4.32;;;1.38;;
84725;SDS011;74945;43.124;0.104;2023-12-20T08:23:17;2.75;;;1.80;;
84725;SDS011;74945;43.124;0.104;2023-12-20T08:25:43;2.33;;;1.50;;
84725;SDS011;74945;43.124;0.104;2023-12-20T08:28:08;4.80;;;2.33;;
84725;SDS011;74945;43.124;0.104;2023-12-20T08:30:33;2.10;;;1.45;;
84725;SDS011;74945;43.124;0.104;2023-12-20T08:32:59;4.20;;;1.63;;
84725;SDS011;74945;43.124;0.104;2023-12-20T08:35:25;2.80;;;1.60;;
84725;SDS011;74945;43.124;0.104;2023-12-20T08:37:50;2.50;;;1.42;;
84725;SDS011;74945;43.124;0.104;2023-12-20T08:40:16;6.97;;;1.77;;
84725;SDS011;74945;43.124;0.104;2023-12-20T08:42:41;3.53;;;1.80;;
84725;SDS011;74945;43.124;0.104;2023-12-20T08:45:07;3.75;;;1.50;;
84725;SDS011;74945;43.124;0.104;2023-12-20T08:47:32;2.50;;;1.60;;
84725;SDS011;74945;43.124;0.104;2023-12-20T08:49:58;3.55;;;1.45;;
84725;SDS011;74945;43.124;0.104;2023-12-20T08:52:25;2.90;;;1.60;;
84725;SDS011;74945;43.124;0.104;2023-12-20T08:54:52;7.95;;;1.92;;
84725;SDS011;74945;43.124;0.104;2023-12-20T08:57:19;2.40;;;1.55;;
84725;SDS011;74945;43.124;0.104;2023-12-20T08:59:46;4.30;;;1.60;;
84725;SDS011;74945;43.124;0.104;2023-12-20T09:02:12;1.63;;;1.27;;
84725;SDS011;74945;43.124;0.104;2023-12-20T09:04:37;2.55;;;1.38;;
84725;SDS011;74945;43.124;0.104;2023-12-20T09:07:03;5.97;;;1.73;;
84725;SDS011;74945;43.124;0.104;2023-12-20T09:09:28;2.85;;;1.40;;
84725;SDS011;74945;43.124;0.104;2023-12-20T09:11:54;3.42;;;1.73;;
84725;SDS011;74945;43.124;0.104;2023-12-20T09:14:19;3.05;;;1.60;;
84725;SDS011;74945;43.124;0.104;2023-12-20T09:16:45;2.85;;;1.27;;
84725;SDS011;74945;43.124;0.104;2023-12-20T09:19:10;4.45;;;1.60;;
84725;SDS011;74945;43.124;0.104;2023-12-20T09:21:35;2.92;;;1.35;;
84725;SDS011;74945;43.124;0.104;2023-12-20T09:24:01;3.25;;;1.30;;
84725;SDS011;74945;43.124;0.104;2023-12-20T09:26:26;4.25;;;1.60;;
84725;SDS011;74945;43.124;0.104;2023-12-20T09:28:51;2.00;;;1.35;;
84725;SDS011;74945;43.124;0.104;2023-12-20T09:31:17;1.48;;;1.38;;
84725;SDS011;74945;43.124;0.104;2023-12-20T09:33:42;3.80;;;1.30;;
84725;SDS011;74945;43.124;0.104;2023-12-20T09:36:08;2.10;;;1.42;;
84725;SDS011;74945;43.124;0.104;2023-12-20T09:38:33;3.08;;;1.52;;
84725;SDS011;74945;43.124;0.104;2023-12-20T09:40:59;3.15;;;1.27;;
84725;SDS011;74945;43.124;0.104;2023-12-20T09:43:26;3.10;;;1.40;;
84725;SDS011;74945;43.124;0.104;2023-12-20T09:45:53;3.95;;;1.40;;
84725;SDS011;74945;43.124;0.104;2023-12-20T09:48:19;1.95;;;1.50;;
84725;SDS011;74945;43.124;0.104;2023-12-20T09:50:44;2.70;;;1.50;;
84725;SDS011;74945;43.124;0.104;2023-12-20T09:53:11;4.43;;;1.40;;
84725;SDS011;74945;43.124;0.104;2023-12-20T09:55:40;2.90;;;1.42;;
84725;SDS011;74945;43.124;0.104;2023-12-20T09:58:06;5.05;;;1.58;;
84725;SDS011;74945;43.124;0.104;2023-12-20T10:00:33;4.68;;;1.50;;
84725;SDS011;74945;43.124;0.104;2023-12-20T10:03:01;2.40;;;1.40;;
84725;SDS011;74945;43.124;0.104;2023-12-20T10:05:29;5.15;;;1.70;;
84725;SDS011;74945;43.124;0.104;2023-12-20T10:07:58;3.55;;;1.60;;
84725;SDS011;74945;43.124;0.104;2023-12-20T10:10:24;3.47;;;1.52;;
84725;SDS011;74945;43.124;0.104;2023-12-20T10:15:27;2.95;;;1.38;;
84725;SDS011;74945;43.124;0.104;2023-12-20T10:17:52;2.95;;;1.40;;
84725;SDS011;74945;43.124;0.104;2023-12-20T10:20:19;2.97;;;1.70;;
84725;SDS011;74945;43.124;0.104;2023-12-20T10:22:45;4.40;;;1.67;;
84725;SDS011;74945;43.124;0.104;2023-12-20T10:25:11;2.08;;;1.35;;
84725;SDS011;74945;43.124;0.104;2023-12-20T10:27:36;3.38;;;1.50;;
84725;SDS011;74945;43.124;0.104;2023-12-20T10:30:02;3.25;;;1.40;;
84725;SDS011;74945;43.124;0.104;2023-12-20T10:32:27;2.45;;;1.50;;
84725;SDS011;74945;43.124;0.104;2023-12-20T10:34:53;3.55;;;1.75;;
84725;SDS011;74945;43.124;0.104;2023-12-20T10:37:19;3.08;;;1.40;;
84725;SDS011;74945;43.124;0.104;2023-12-20T10:39:52;1.77;;;1.48;;
84725;SDS011;74945;43.124;0.104;2023-12-20T10:42:21;2.55;;;1.67;;
84725;SDS011;74945;43.124;0.104;2023-12-20T10:44:47;3.92;;;1.58;;
84725;SDS011;74945;43.124;0.104;2023-12-20T10:47:16;2.17;;;1.40;;
84725;SDS011;74945;43.124;0.104;2023-12-20T10:49:42;1.63;;;1.30;;
84725;SDS011;74945;43.124;0.104;2023-12-20T10:52:09;2.97;;;1.42;;
84725;SDS011;74945;43.124;0.104;2023-12-20T10:54:36;2.50;;;1.40;;
84725;SDS011;74945;43.124;0.104;2023-12-20T10:57:01;4.30;;;1.77;;
84725;SDS011;74945;43.124;0.104;2023-12-20T10:59:30;2.50;;;1.30;;
84725;SDS011;74945;43.124;0.104;2023-12-20T11:01:58;1.70;;;1.50;;
84725;SDS011;74945;43.124;0.104;2023-12-20T11:04:25;4.03;;;1.33;;
84725;SDS011;74945;43.124;0.104;2023-12-20T11:10:08;5.20;;;1.58;;
84725;SDS011;74945;43.124;0.104;2023-12-20T11:12:40;2.50;;;1.55;;
84725;SDS011;74945;43.124;0.104;2023-12-20T11:15:10;1.77;;;1.45;;
84725;SDS011;74945;43.124;0.104;2023-12-20T11:17:36;4.70;;;1.73;;
84725;SDS011;74945;43.124;0.104;2023-12-20T11:20:05;2.10;;;1.25;;
84725;SDS011;74945;43.124;0.104;2023-12-20T11:22:31;2.63;;;1.40;;
84725;SDS011;74945;43.124;0.104;2023-12-20T11:25:07;1.55;;;1.30;;
84725;SDS011;74945;43.124;0.104;2023-12-20T11:27:35;2.08;;;1.40;;
84725;SDS011;74945;43.124;0.104;2023-12-20T11:30:02;2.28;;;1.30;;
84725;SDS011;74945;43.124;0.104;2023-12-20T11:32:31;2.45;;;1.30;;
84725;SDS011;74945;43.124;0.104;2023-12-20T11:37:35;2.85;;;1.40;;
84725;SDS011;74945;43.124;0.104;2023-12-20T11:40:02;3.08;;;1.20;;
84725;SDS011;74945;43.124;0.104;2023-12-20T11:42:34;3.33;;;1.50;;
84725;SDS011;74945;43.124;0.104;2023-12-20T11:45:03;1.73;;;1.35;;
84725;SDS011;74945;43.124;0.104;2023-12-20T11:47:29;2.13;;;1.30;;
84725;SDS011;74945;43.124;0.104;2023-12-20T11:49:56;1.83;;;1.40;;
84725;SDS011;74945;43.124;0.104;2023-12-20T11:52:21;3.45;;;1.30;;
84725;SDS011;74945;43.124;0.104;2023-12-20T11:54:46;2.95;;;1.35;;
84725;SDS011;74945;43.124;0.104;2023-12-20T11:57:13;1.60;;;1.10;;
84725;SDS011;74945;43.124;0.104;2023-12-20T11:59:38;2.70;;;1.40;;
84725;SDS011;74945;43.124;0.104;2023-12-20T12:02:04;1.95;;;1.20;;
84725;SDS011;74945;43.124;0.104;2023-12-20T12:04:29;1.58;;;1.02;;
84725;SDS011;74945;43.124;0.104;2023-12-20T12:06:55;2.33;;;1.30;;
84725;SDS011;74945;43.124;0.104;2023-12-20T12:09:20;2.22;;;1.40;;
84725;SDS011;74945;43.124;0.104;2023-12-20T12:11:45;2.15;;;1.30;;
84725;SDS011;74945;43.124;0.104;2023-12-20T12:14:11;3.05;;;1.20;;
84725;SDS011;74945;43.124;0.104;2023-12-20T12:16:36;1.60;;;1.23;;
84725;SDS011;74945;43.124;0.104;2023-12-20T12:19:02;1.25;;;1.10;;
84725;SDS011;74945;43.124;0.104;2023-12-20T12:21:27;1.92;;;1.25;;
84725;SDS011;74945;43.124;0.104;2023-12-20T12:23:52;1.30;;;1.15;;
84725;SDS011;74945;43.124;0.104;2023-12-20T12:26:18;2.15;;;1.33;;
84725;SDS011;74945;43.124;0.104;2023-12-20T12:28:43;2.15;;;1.40;;
84725;SDS011;74945;43.124;0.104;2023-12-20T12:31:12;2.75;;;1.27;;
84725;SDS011;74945;43.124;0.104;2023-12-20T12:33:40;1.45;;;1.00;;
84725;SDS011;74945;43.124;0.104;2023-12-20T12:36:06;1.55;;;1.15;;
84725;SDS011;74945;43.124;0.104;2023-12-20T12:38:32;1.35;;;0.95;;
84725;SDS011;74945;43.124;0.104;2023-12-20T12:40:59;1.48;;;1.10;;
84725;SDS011;74945;43.124;0.104;2023-12-20T12:43:25;1.50;;;1.00;;
84725;SDS011;74945;43.124;0.104;2023-12-20T12:45:50;1.40;;;1.10;;
84725;SDS011;74945;43.124;0.104;2023-12-20T12:48:16;1.80;;;1.27;;
84725;SDS011;74945;43.124;0.104;2023-12-20T12:50:41;2.08;;;1.40;;
84725;SDS011;74945;43.124;0.104;2023-12-20T12:53:07;1.23;;;1.08;;
84725;SDS011;74945;43.124;0.104;2023-12-20T12:55:32;2.90;;;1.33;;
84725;SDS011;74945;43.124;0.104;2023-12-20T12:57:59;1.33;;;1.05;;
84725;SDS011;74945;43.124;0.104;2023-12-20T13:00:25;1.75;;;1.20;;
84725;SDS011;74945;43.124;0.104;2023-12-20T13:02:51;1.70;;;1.10;;
84725;SDS011;74945;43.124;0.104;2023-12-20T13:05:16;1.42;;;1.15;;
84725;SDS011;74945;43.124;0.104;2023-12-20T13:07:42;1.50;;;1.00;;
84725;SDS011;74945;43.124;0.104;2023-12-20T13:10:10;2.30;;;1.00;;
84725;SDS011;74945;43.124;0.104;2023-12-20T13:12:35;1.75;;;1.10;;
84725;SDS011;74945;43.124;0.104;2023-12-20T13:15:01;1.92;;;1.20;;
84725;SDS011;74945;43.124;0.104;2023-12-20T13:17:28;1.88;;;1.35;;
84725;SDS011;74945;43.124;0.104;2023-12-20T13:19:54;1.42;;;1.33;;
84725;SDS011;74945;43.124;0.104;2023-12-20T13:22:19;1.58;;;1.15;;
84725;SDS011;74945;43.124;0.104;2023-12-20T13:24:45;1.90;;;0.90;;
84725;SDS011;74945;43.124;0.104;2023-12-20T13:27:10;1.85;;;1.10;;
84725;SDS011;74945;43.124;0.104;2023-12-20T13:29:35;1.60;;;1.10;;
84725;SDS011;74945;43.124;0.104;2023-12-20T13:32:01;0.93;;;0.93;;
84725;SDS011;74945;43.124;0.104;2023-12-20T13:34:28;1.63;;;1.20;;
84725;SDS011;74945;43.124;0.104;2023-12-20T13:36:54;2.72;;;1.10;;
84725;SDS011;74945;43.124;0.104;2023-12-20T13:39:19;1.27;;;0.88;;
84725;SDS011;74945;43.124;0.104;2023-12-20T13:41:44;2.63;;;1.40;;
84725;SDS011;74945;43.124;0.104;2023-12-20T13:44:10;1.45;;;1.00;;
84725;SDS011;74945;43.124;0.104;2023-12-20T13:46:37;1.00;;;0.80;;
84725;SDS011;74945;43.124;0.104;2023-12-20T13:49:02;1.40;;;1.10;;
84725;SDS011;74945;43.124;0.104;2023-12-20T13:51:28;0.93;;;0.88;;
84725;SDS011;74945;43.124;0.104;2023-12-20T13:53:53;1.35;;;1.00;;
84725;SDS011;74945;43.124;0.104;2023-12-20T13:56:19;1.77;;;1.00;;
84725;SDS011;74945;43.124;0.104;2023-12-20T13:58:45;1.58;;;1.00;;
84725;SDS011;74945;43.124;0.104;2023-12-20T14:01:11;1.25;;;0.98;;
84725;SDS011;74945;43.124;0.104;2023-12-20T14:03:37;1.00;;;0.85;;
84725;SDS011;74945;43.124;0.104;2023-12-20T14:06:02;1.08;;;0.90;;
84725;SDS011;74945;43.124;0.104;2023-12-20T14:08:28;2.35;;;1.00;;
84725;SDS011;74945;43.124;0.104;2023-12-20T14:10:54;1.35;;;0.93;;
84725;SDS011;74945;43.124;0.104;2023-12-20T14:13:19;2.13;;;1.00;;
84725;SDS011;74945;43.124;0.104;2023-12-20T14:15:46;1.45;;;1.00;;
84725;SDS011;74945;43.124;0.104;2023-12-20T14:18:11;1.00;;;0.90;;
84725;SDS011;74945;43.124;0.104;2023-12-20T14:20:39;1.85;;;1.02;;
84725;SDS011;74945;43.124;0.104;2023-12-20T14:23:07;1.15;;;1.00;;
84725;SDS011;74945;43.124;0.104;2023-12-20T14:25:32;1.23;;;0.98;;
84725;SDS011;74945;43.124;0.104;2023-12-20T14:27:58;1.25;;;0.90;;
84725;SDS011;74945;43.124;0.104;2023-12-20T14:30:24;1.88;;;1.00;;
84725;SDS011;74945;43.124;0.104;2023-12-20T14:32:50;1.10;;;1.00;;
84725;SDS011;74945;43.124;0.104;2023-12-20T14:35:15;1.73;;;1.00;;
84725;SDS011;74945;43.124;0.104;2023-12-20T14:37:41;0.85;;;0.80;;
84725;SDS011;74945;43.124;0.104;2023-12-20T14:40:06;2.17;;;1.00;;
84725;SDS011;74945;43.124;0.104;2023-12-20T14:42:35;0.88;;;0.75;;
84725;SDS011;74945;43.124;0.104;2023-12-20T14:45:01;1.40;;;0.80;;
84725;SDS011;74945;43.124;0.104;2023-12-20T14:47:26;1.25;;;1.02;;